Time;durP1;ratioP1;P1;durP2;ratioP2;P2;SDS_P1;SDS_P2;PMS_P1;PMS_P2;Temp;Humidity;BMP_temperature;BMP_pressure;BME280_temperature;BME280_humidity;BME280_pressure;Samples;Min_cycle;Max_cycle;Signal;HPM_P1;HPM_P2
2021/08/12 00:02:04;;;;;;;4.60;2.08;;;22.60;93.10;;;;;;5111337;28;20020;-71
2021/08/12 00:04:31;;;;;;;3.50;1.92;;;22.60;93.00;;;;;;5111706;28;20035;-71
2021/08/12 00:06:57;;;;;;;3.63;2.58;;;22.60;93.00;;;;;;5111231;28;20088;-71
2021/08/12 00:09:23;;;;;;;5.43;2.65;;;22.60;93.00;;;;;;5111806;28;20063;-71
2021/08/12 00:11:48;;;;;;;4.47;2.15;;;22.60;93.00;;;;;;5111463;28;20024;-71
2021/08/12 00:14:14;;;;;;;5.07;2.30;;;22.60;93.00;;;;;;5110946;28;20034;-71
2021/08/12 00:16:40;;;;;;;3.90;2.20;;;22.60;93.00;;;;;;5111666;28;20456;-71
2021/08/12 00:19:11;;;;;;;5.82;2.83;;;22.60;93.00;;;;;;5111133;28;20414;-71
2021/08/12 00:21:37;;;;;;;5.40;2.47;;;22.60;93.00;;;;;;5111573;28;20029;-71
2021/08/12 00:24:03;;;;;;;4.05;2.20;;;22.60;93.00;;;;;;5110789;28;20039;-71
2021/08/12 00:26:28;;;;;;;3.20;2.25;;;22.50;93.00;;;;;;5111594;28;20425;-71
2021/08/12 00:28:54;;;;;;;4.28;2.40;;;22.50;92.90;;;;;;5110671;28;20028;-71
2021/08/12 00:31:19;;;;;;;4.50;2.30;;;22.50;92.90;;;;;;5111543;28;20032;-70
2021/08/12 00:33:45;;;;;;;3.65;2.47;;;22.50;92.90;;;;;;5111592;28;20053;-71
2021/08/12 00:36:11;;;;;;;3.22;2.47;;;22.50;92.90;;;;;;5110753;28;20095;-71
2021/08/12 00:38:36;;;;;;;2.92;1.80;;;22.50;92.90;;;;;;5110871;28;20036;-71
2021/08/12 00:41:02;;;;;;;4.75;2.22;;;22.50;92.90;;;;;;5112719;28;20031;-71
2021/08/12 00:43:28;;;;;;;2.55;2.05;;;22.50;92.80;;;;;;5114627;28;20031;-71
2021/08/12 00:45:53;;;;;;;5.28;2.50;;;22.50;92.80;;;;;;5115271;28;20027;-71
2021/08/12 00:48:19;;;;;;;4.70;2.28;;;22.50;92.80;;;;;;5115910;28;20031;-71
2021/08/12 00:50:46;;;;;;;5.68;2.65;;;22.50;92.80;;;;;;5115286;28;20050;-71
2021/08/12 00:53:12;;;;;;;3.67;2.33;;;22.50;92.80;;;;;;5114676;28;20422;-71
2021/08/12 00:55:46;;;;;;;3.90;2.85;;;22.50;92.80;;;;;;5114811;28;20031;-71
2021/08/12 00:58:34;;;;;;;3.08;1.95;;;22.40;92.80;;;;;;5096251;28;20160;-71
2021/08/12 01:00:59;;;;;;;3.83;2.35;;;22.40;92.80;;;;;;5114875;28;20069;-71
2021/08/12 01:03:25;;;;;;;5.75;2.45;;;22.40;92.80;;;;;;5114684;28;20395;-71
2021/08/12 01:05:57;;;;;;;4.35;2.17;;;22.40;92.80;;;;;;5114261;28;20036;-71
2021/08/12 01:08:53;;;;;;;3.10;2.38;;;22.40;92.80;;;;;;5130322;27;20031;-71
2021/08/12 01:11:25;;;;;;;;;;;22.40;92.80;;;;;;5115802;28;20506;-71
2021/08/12 01:14:12;;;;;;;4.15;2.45;;;22.40;92.70;;;;;;5114149;28;19915;-71
2021/08/12 01:17:00;;;;;;;5.60;2.33;;;22.40;92.70;;;;;;5114685;28;20020;-72
2021/08/12 01:19:53;;;;;;;3.20;2.05;;;22.40;92.80;;;;;;5114639;28;20503;-71
2021/08/12 01:22:21;;;;;;;4.05;2.30;;;22.40;92.70;;;;;;5114747;28;20019;-71
2021/08/12 01:24:53;;;;;;;3.63;2.03;;;22.40;92.70;;;;;;5114777;28;20468;-70
2021/08/12 01:27:22;;;;;;;4.28;2.33;;;22.40;92.70;;;;;;5114837;28;20069;-71
2021/08/12 01:30:03;;;;;;;5.05;2.90;;;22.40;93.00;;;;;;5114525;28;20106;-71
2021/08/12 01:32:48;;;;;;;4.25;2.28;;;22.40;92.70;;;;;;5114392;28;20020;-72
2021/08/12 01:35:17;;;;;;;3.20;2.03;;;22.40;92.70;;;;;;5114331;28;20020;-71
2021/08/12 01:37:51;;;;;;;2.92;2.17;;;22.40;92.70;;;;;;5113629;28;20049;-71
2021/08/12 01:40:20;;;;;;;3.55;2.22;;;22.40;92.70;;;;;;5114094;28;20031;-71
2021/08/12 01:42:46;;;;;;;3.38;2.40;;;22.40;92.70;;;;;;5113587;28;20032;-71
2021/08/12 01:45:15;;;;;;;3.53;2.30;;;22.30;92.60;;;;;;5113627;28;20118;-71
2021/08/12 01:47:42;;;;;;;3.63;2.10;;;22.30;92.70;;;;;;5114108;28;20016;-71
2021/08/12 01:50:13;;;;;;;3.08;1.80;;;22.30;92.60;;;;;;5113960;28;20016;-71
2021/08/12 01:52:41;;;;;;;2.60;1.88;;;22.30;92.60;;;;;;5113420;28;20395;-72
2021/08/12 01:55:07;;;;;;;3.35;2.22;;;22.30;92.60;;;;;;5113547;28;20084;-71
2021/08/12 01:57:33;;;;;;;3.72;2.28;;;22.30;92.60;;;;;;5114230;28;20068;-71
2021/08/12 02:00:01;;;;;;;3.05;2.15;;;22.30;92.60;;;;;;5113604;28;20035;-71
2021/08/12 02:02:28;;;;;;;4.07;2.25;;;22.30;92.70;;;;;;5113533;28;20020;-71
2021/08/12 02:04:54;;;;;;;4.00;2.03;;;22.30;92.80;;;;;;5113922;28;20034;-72
2021/08/12 02:07:20;;;;;;;3.40;2.40;;;22.30;92.90;;;;;;5113754;28;20383;-71
2021/08/12 02:09:46;;;;;;;3.70;2.38;;;22.30;93.00;;;;;;5113799;28;20031;-72
2021/08/12 02:12:11;;;;;;;4.68;3.38;;;22.30;93.10;;;;;;5113334;28;20102;-72
2021/08/12 02:14:38;;;;;;;3.15;2.20;;;22.30;93.30;;;;;;5112743;28;20035;-71
2021/08/12 02:17:04;;;;;;;4.15;2.53;;;22.30;93.40;;;;;;5113466;28;20024;-71
2021/08/12 02:19:31;;;;;;;4.20;2.47;;;22.30;93.40;;;;;;5113459;28;20078;-71
2021/08/12 02:22:25;;;;;;;3.13;1.85;;;22.30;93.50;;;;;;5113294;28;20053;-72
2021/08/12 02:24:55;;;;;;;4.00;2.40;;;22.30;93.60;;;;;;5110033;28;20073;-71
2021/08/12 02:27:24;;;;;;;4.00;2.95;;;22.30;93.70;;;;;;5113241;28;20027;-71
2021/08/12 02:29:52;;;;;;;3.83;3.03;;;22.30;93.70;;;;;;5113822;28;20020;-71
2021/08/12 02:32:20;;;;;;;3.25;2.22;;;22.30;93.70;;;;;;5113288;28;20479;-71
2021/08/12 02:34:48;;;;;;;5.22;2.45;;;22.30;93.70;;;;;;5113493;28;20016;-71
2021/08/12 02:37:18;;;;;;;3.80;1.95;;;22.30;93.70;;;;;;5112463;28;20395;-71
2021/08/12 02:39:45;;;;;;;2.95;2.13;;;22.30;93.70;;;;;;5112391;28;20050;-70
2021/08/12 02:42:12;;;;;;;3.28;2.30;;;22.30;93.70;;;;;;5112007;28;20440;-71
2021/08/12 02:44:41;;;;;;;3.15;2.33;;;22.30;93.70;;;;;;5112543;28;20103;-70
2021/08/12 02:47:08;;;;;;;3.85;2.30;;;22.30;93.70;;;;;;5094271;28;20027;-71
2021/08/12 02:49:42;;;;;;;3.20;2.08;;;22.30;93.70;;;;;;5113002;28;20041;-70
2021/08/12 02:52:09;;;;;;;4.05;2.30;;;22.30;93.60;;;;;;5101653;28;20032;-71
2021/08/12 02:54:36;;;;;;;3.33;1.90;;;22.30;93.60;;;;;;5112757;28;20031;-71
2021/08/12 02:57:03;;;;;;;3.35;2.20;;;22.30;93.60;;;;;;5112823;28;20023;-71
2021/08/12 02:59:29;;;;;;;5.60;2.40;;;22.30;93.60;;;;;;5112778;28;20039;-71
2021/08/12 03:01:56;;;;;;;4.35;2.72;;;22.30;93.60;;;;;;5112069;28;20030;-71
2021/08/12 03:04:23;;;;;;;3.03;2.17;;;22.30;93.60;;;;;;5111524;28;20023;-71
2021/08/12 03:06:55;;;;;;;4.10;2.67;;;22.20;93.50;;;;;;5112355;28;20467;-71
2021/08/12 03:09:22;;;;;;;8.00;2.30;;;22.20;93.50;;;;;;5094111;28;20036;-70
2021/08/12 03:11:48;;;;;;;3.17;2.55;;;22.30;93.50;;;;;;5113117;28;20106;-71
2021/08/12 03:14:15;;;;;;;2.40;2.00;;;22.20;93.50;;;;;;5093853;28;20028;-70
2021/08/12 03:16:40;;;;;;;3.28;2.50;;;22.20;93.50;;;;;;5112316;28;20597;-71
2021/08/12 03:19:06;;;;;;;2.92;2.22;;;22.20;93.50;;;;;;5112115;28;20063;-71
2021/08/12 03:21:32;;;;;;;3.00;2.22;;;22.20;93.50;;;;;;5112325;28;20051;-71
2021/08/12 03:24:02;;;;;;;2.78;2.17;;;22.20;93.50;;;;;;5111823;28;20444;-71
2021/08/12 03:26:28;;;;;;;4.30;2.25;;;22.20;93.50;;;;;;5112585;28;20020;-71
2021/08/12 03:28:54;;;;;;;4.82;2.28;;;22.20;93.50;;;;;;5111397;28;20023;-71
2021/08/12 03:31:20;;;;;;;2.60;2.10;;;22.20;93.40;;;;;;5112285;28;20099;-70
2021/08/12 03:33:45;;;;;;;3.58;2.40;;;22.20;93.40;;;;;;5111731;28;20035;-71
2021/08/12 03:36:11;;;;;;;3.25;2.10;;;22.20;93.40;;;;;;5111460;28;20028;-71
2021/08/12 03:38:36;;;;;;;3.38;2.38;;;22.20;93.30;;;;;;5111926;28;20028;-71
2021/08/12 03:41:03;;;;;;;3.40;2.13;;;22.20;93.30;;;;;;5112012;28;20051;-71
2021/08/12 03:43:28;;;;;;;4.25;2.42;;;22.20;93.30;;;;;;5111768;28;20016;-71
2021/08/12 03:45:54;;;;;;;3.47;2.40;;;22.20;93.20;;;;;;5111223;28;20088;-70
2021/08/12 03:48:20;;;;;;;4.32;2.40;;;22.10;93.20;;;;;;5112119;28;20080;-70
2021/08/12 03:50:45;;;;;;;3.45;1.85;;;22.10;93.20;;;;;;5111702;28;20031;-72
2021/08/12 03:53:11;;;;;;;3.60;2.35;;;22.10;93.20;;;;;;5111752;28;20376;-69
2021/08/12 03:55:36;;;;;;;3.40;2.60;;;22.10;93.20;;;;;;5111684;28;20545;-71
2021/08/12 03:58:02;;;;;;;2.50;2.05;;;22.10;93.20;;;;;;5111122;28;20548;-71
2021/08/12 04:00:28;;;;;;;3.20;2.30;;;22.10;93.20;;;;;;5111767;28;20027;-71
2021/08/12 04:02:53;;;;;;;2.88;2.33;;;22.10;93.20;;;;;;5112072;28;20026;-71
2021/08/12 04:05:19;;;;;;;3.83;2.60;;;22.10;93.10;;;;;;5111669;28;20063;-71
2021/08/12 04:07:44;;;;;;;3.72;2.17;;;22.10;93.10;;;;;;5111059;28;20035;-71
2021/08/12 04:10:10;;;;;;;3.30;2.25;;;22.10;93.10;;;;;;5111065;28;20043;-71
2021/08/12 04:12:36;;;;;;;3.97;2.55;;;22.10;93.10;;;;;;5111232;28;20016;-71
2021/08/12 04:15:02;;;;;;;2.45;2.08;;;22.10;93.10;;;;;;5092813;28;20554;-70
2021/08/12 04:17:27;;;;;;;4.50;2.20;;;22.10;93.10;;;;;;5111670;28;20020;-71
2021/08/12 04:19:53;;;;;;;5.05;2.53;;;22.10;93.00;;;;;;5110860;28;20078;-71
2021/08/12 04:22:19;;;;;;;5.28;2.10;;;22.10;93.00;;;;;;5111094;28;20027;-71
2021/08/12 04:24:44;;;;;;;4.07;2.38;;;22.10;93.00;;;;;;5111720;28;20517;-71
2021/08/12 04:27:10;;;;;;;3.20;2.40;;;22.10;93.00;;;;;;5111350;28;20024;-71
2021/08/12 04:29:36;;;;;;;3.55;2.30;;;22.10;93.00;;;;;;5111539;28;20110;-71
2021/08/12 04:32:03;;;;;;;3.60;2.50;;;22.10;93.00;;;;;;5111263;28;20016;-71
2021/08/12 04:34:28;;;;;;;5.38;2.53;;;22.00;92.90;;;;;;5111483;28;20027;-71
2021/08/12 04:36:54;;;;;;;4.07;2.45;;;22.10;92.90;;;;;;5092046;28;20069;-71
2021/08/12 04:39:20;;;;;;;3.92;2.40;;;22.00;92.90;;;;;;5111130;28;20036;-71
2021/08/12 04:41:45;;;;;;;3.33;2.20;;;22.00;92.90;;;;;;5110926;28;20029;-71
2021/08/12 04:44:11;;;;;;;3.50;2.40;;;22.00;92.90;;;;;;5110407;28;20540;-71
2021/08/12 04:46:37;;;;;;;3.20;2.60;;;22.10;92.90;;;;;;5111194;28;20441;-71
2021/08/12 04:49:03;;;;;;;3.70;2.40;;;22.00;92.70;;;;;;5110519;28;20076;-71
2021/08/12 04:51:28;;;;;;;2.67;1.95;;;22.00;92.80;;;;;;5111309;28;20023;-71
2021/08/12 04:53:54;;;;;;;2.65;2.30;;;22.00;92.80;;;;;;5092808;28;20109;-71
2021/08/12 04:56:19;;;;;;;3.45;2.50;;;22.00;92.80;;;;;;5111687;28;20413;-70
2021/08/12 04:58:45;;;;;;;3.42;2.50;;;22.00;92.80;;;;;;5110738;28;20042;-70
2021/08/12 05:01:11;;;;;;;3.60;2.45;;;22.00;92.80;;;;;;5110385;28;20112;-71
2021/08/12 05:03:36;;;;;;;2.90;2.10;;;22.00;92.80;;;;;;5111027;28;20041;-70
2021/08/12 05:06:04;;;;;;;3.10;2.15;;;22.00;92.70;;;;;;5110771;28;20510;-70
2021/08/12 05:08:30;;;;;;;3.78;2.40;;;22.00;92.70;;;;;;5110388;28;20078;-71
2021/08/12 05:10:56;;;;;;;3.10;2.15;;;22.00;92.70;;;;;;5110804;28;20020;-72
2021/08/12 05:13:22;;;;;;;3.33;2.28;;;22.00;92.70;;;;;;5110994;28;20050;-71
2021/08/12 05:15:48;;;;;;;3.30;1.80;;;22.00;92.70;;;;;;5111405;28;20023;-71
2021/08/12 05:18:13;;;;;;;3.55;2.20;;;22.00;92.60;;;;;;5110138;28;20027;-71
2021/08/12 05:20:39;;;;;;;3.15;2.20;;;22.00;92.60;;;;;;5110144;28;20415;-70
2021/08/12 05:23:05;;;;;;;4.90;2.58;;;22.00;92.60;;;;;;5110501;28;20099;-70
2021/08/12 05:25:30;;;;;;;3.33;2.53;;;22.00;92.70;;;;;;5111055;28;20028;-71
2021/08/12 05:27:56;;;;;;;3.83;2.38;;;22.00;92.70;;;;;;5114359;28;20060;-72
2021/08/12 05:30:23;;;;;;;3.33;2.40;;;22.00;93.00;;;;;;5113920;28;20031;-71
2021/08/12 05:32:49;;;;;;;5.82;3.00;;;22.00;92.70;;;;;;5114711;28;20031;-71
2021/08/12 05:35:15;;;;;;;3.95;2.63;;;22.00;92.70;;;;;;5113954;28;20533;-71
2021/08/12 05:37:40;;;;;;;3.38;2.38;;;22.00;92.70;;;;;;5114676;28;20035;-71
2021/08/12 05:40:07;;;;;;;3.58;2.33;;;22.00;92.70;;;;;;5113576;28;20046;-72
2021/08/12 05:42:33;;;;;;;2.83;2.30;;;22.00;92.70;;;;;;5113640;28;20654;-72
2021/08/12 05:44:58;;;;;;;4.93;2.60;;;22.00;92.70;;;;;;5112374;28;20024;-72
2021/08/12 05:47:24;;;;;;;3.28;2.83;;;22.00;92.80;;;;;;5112008;28;20020;-73
2021/08/12 05:49:49;;;;;;;3.45;2.17;;;22.00;92.80;;;;;;5112602;28;20031;-72
2021/08/12 05:52:15;;;;;;;6.63;2.47;;;22.00;92.70;;;;;;5113398;28;20437;-71
2021/08/12 05:54:41;;;;;;;5.20;2.38;;;22.00;92.70;;;;;;5113484;28;20098;-71
2021/08/12 05:57:06;;;;;;;3.53;2.60;;;22.00;92.70;;;;;;5113387;28;20394;-72
2021/08/12 05:59:32;;;;;;;3.17;2.20;;;22.00;92.70;;;;;;5112877;28;20464;-73
2021/08/12 06:01:58;;;;;;;3.50;2.63;;;22.00;92.70;;;;;;5113245;28;20053;-69
2021/08/12 06:04:23;;;;;;;4.30;2.25;;;22.00;92.70;;;;;;5113326;28;20028;-72
2021/08/12 06:06:50;;;;;;;4.00;2.55;;;;;;;;;;5113273;28;20483;-71
2021/08/12 06:09:15;;;;;;;4.25;2.58;;;22.00;92.40;;;;;;5112370;28;20073;-71
2021/08/12 06:11:41;;;;;;;3.80;2.50;;;21.90;92.60;;;;;;5112999;28;20027;-72
2021/08/12 06:14:06;;;;;;;3.83;2.33;;;22.00;92.70;;;;;;5112763;28;20031;-70
2021/08/12 06:16:32;;;;;;;3.38;2.40;;;21.90;92.60;;;;;;5095036;28;20019;-70
2021/08/12 06:18:58;;;;;;;5.32;3.03;;;22.00;92.70;;;;;;5112641;28;20440;-71
2021/08/12 06:21:24;;;;;;;3.35;2.10;;;22.00;92.70;;;;;;5113053;28;20072;-71
2021/08/12 06:23:50;;;;;;;3.35;2.47;;;22.00;92.70;;;;;;5114037;28;20024;-70
2021/08/12 06:26:17;;;;;;;4.25;2.45;;;21.90;92.70;;;;;;5127293;27;20043;-70
2021/08/12 06:28:44;;;;;;;3.53;3.03;;;22.00;92.70;;;;;;5111499;28;20051;-72
2021/08/12 06:31:10;;;;;;;4.85;2.30;;;22.00;92.60;;;;;;5111533;28;20478;-71
2021/08/12 06:33:35;;;;;;;2.28;1.77;;;22.00;92.60;;;;;;5112004;28;20024;-72
2021/08/12 06:36:01;;;;;;;3.47;2.30;;;22.00;92.60;;;;;;5111909;28;20046;-71
2021/08/12 06:38:27;;;;;;;3.63;2.45;;;22.00;92.50;;;;;;5111526;28;20052;-73
2021/08/12 06:40:52;;;;;;;5.75;2.47;;;22.00;92.50;;;;;;5110946;28;20160;-70
2021/08/12 06:43:18;;;;;;;4.45;2.33;;;22.00;92.50;;;;;;5111703;28;20491;-71
2021/08/12 06:45:45;;;;;;;4.70;2.83;;;22.00;92.50;;;;;;5111301;28;20019;-70
2021/08/12 06:48:11;;;;;;;4.85;2.63;;;22.00;92.50;;;;;;5111534;28;20359;-71
2021/08/12 06:50:37;;;;;;;5.10;2.47;;;22.10;92.50;;;;;;5111104;28;20023;-70
2021/08/12 06:53:03;;;;;;;4.55;2.95;;;22.10;92.80;;;;;;5111073;28;20019;-72
2021/08/12 06:55:30;;;;;;;2.70;2.20;;;22.10;92.50;;;;;;5111432;28;20390;-73
2021/08/12 06:57:56;;;;;;;3.92;2.85;;;22.10;92.50;;;;;;5112435;28;20451;-73
2021/08/12 07:00:22;;;;;;;4.53;2.95;;;22.10;92.40;;;;;;5111780;28;20114;-72
2021/08/12 07:02:48;;;;;;;4.65;2.80;;;22.10;92.30;;;;;;5094752;28;20023;-72
2021/08/12 07:05:13;;;;;;;4.60;2.65;;;22.10;92.30;;;;;;5112435;28;20099;-72
2021/08/12 07:07:39;;;;;;;3.80;2.67;;;22.10;92.30;;;;;;5107940;28;20016;-71
2021/08/12 07:10:06;;;;;;;4.43;2.60;;;22.10;92.30;;;;;;5105508;28;20035;-70
2021/08/12 07:12:31;;;;;;;5.03;2.33;;;22.10;92.30;;;;;;5111793;28;20032;-69
2021/08/12 07:14:57;;;;;;;4.15;2.55;;;22.10;92.20;;;;;;5098800;28;20109;-69
2021/08/12 07:17:22;;;;;;;5.38;2.90;;;22.10;92.20;;;;;;5092299;28;20099;-69
2021/08/12 07:19:48;;;;;;;4.50;2.67;;;22.10;92.20;;;;;;5094945;28;20064;-70
2021/08/12 07:22:14;;;;;;;3.30;2.60;;;22.10;92.20;;;;;;5102349;28;20032;-70
2021/08/12 07:24:40;;;;;;;7.90;2.70;;;22.10;92.20;;;;;;5092005;28;20020;-69
2021/08/12 07:27:05;;;;;;;5.00;2.45;;;22.10;92.20;;;;;;5109825;28;20059;-71
2021/08/12 07:29:31;;;;;;;4.20;2.95;;;22.10;92.20;;;;;;5110217;28;20055;-71
2021/08/12 07:31:56;;;;;;;4.15;2.97;;;22.10;92.20;;;;;;5106474;27;20479;-72
2021/08/12 07:34:22;;;;;;;7.45;2.83;;;22.10;92.20;;;;;;5117646;27;20080;-70
2021/08/12 07:36:48;;;;;;;6.97;2.63;;;22.10;92.00;;;;;;5103869;28;20024;-71
2021/08/12 07:39:17;;;;;;;5.00;3.28;;;22.10;91.80;;;;;;5110497;28;20165;-71
2021/08/12 07:41:43;;;;;;;5.20;2.67;;;22.10;91.50;;;;;;5110543;28;20399;-70
2021/08/12 07:44:09;;;;;;;8.73;2.72;;;22.20;91.40;;;;;;5123382;27;20015;-71
2021/08/12 07:46:35;;;;;;;6.25;2.70;;;22.20;91.30;;;;;;5110435;28;20024;-71
2021/08/12 07:49:01;;;;;;;5.63;2.80;;;22.10;91.20;;;;;;5109114;28;20024;-70
2021/08/12 07:51:27;;;;;;;4.25;2.58;;;22.20;91.10;;;;;;5110123;28;20476;-71
2021/08/12 07:53:53;;;;;;;6.22;2.75;;;22.20;91.10;;;;;;5110263;28;20027;-71
2021/08/12 07:56:19;;;;;;;7.53;3.45;;;22.20;91.10;;;;;;5111244;28;20127;-70
2021/08/12 07:58:46;;;;;;;5.50;2.75;;;22.20;91.30;;;;;;5110823;28;20103;-70
2021/08/12 08:01:11;;;;;;;4.70;2.50;;;22.20;91.30;;;;;;5111412;28;20032;-70
2021/08/12 08:03:37;;;;;;;5.95;2.83;;;22.20;91.30;;;;;;5110502;28;20098;-71
2021/08/12 08:06:03;;;;;;;4.45;2.88;;;22.20;91.10;;;;;;5111053;28;20110;-71
2021/08/12 08:08:28;;;;;;;14.85;8.20;;;22.20;91.20;;;;;;5110055;28;20402;-70
2021/08/12 08:10:54;;;;;;;10.75;5.13;;;22.20;91.20;;;;;;5109844;28;20022;-74
2021/08/12 08:13:20;;;;;;;9.80;5.57;;;22.20;90.80;;;;;;5091518;28;20016;-71
2021/08/12 08:15:46;;;;;;;26.15;15.65;;;22.20;90.60;;;;;;5093505;28;20118;-71
2021/08/12 08:18:11;;;;;;;19.23;11.35;;;22.20;90.70;;;;;;5102148;28;20031;-71
2021/08/12 08:20:37;;;;;;;24.77;16.65;;;22.30;90.70;;;;;;5108891;28;20126;-70
2021/08/12 08:23:05;;;;;;;25.73;15.60;;;22.30;91.00;;;;;;5107005;28;20449;-71
2021/08/12 08:25:31;;;;;;;27.23;16.85;;;22.30;91.00;;;;;;5111610;28;20049;-71
2021/08/12 08:27:57;;;;;;;19.20;12.68;;;22.30;91.00;;;;;;5111071;28;20463;-71
2021/08/12 08:30:23;;;;;;;21.67;12.18;;;22.30;90.70;;;;;;5110829;28;20022;-71
2021/08/12 08:32:49;;;;;;;21.50;12.48;;;22.40;90.60;;;;;;5111310;28;20020;-70
2021/08/12 08:35:14;;;;;;;18.67;10.48;;;22.40;90.60;;;;;;5110261;28;20437;-70
2021/08/12 08:37:40;;;;;;;16.63;11.77;;;22.40;90.40;;;;;;5110673;28;20382;-70
2021/08/12 08:40:06;;;;;;;15.82;10.00;;;22.40;90.70;;;;;;5110344;28;20032;-71
2021/08/12 08:42:33;;;;;;;15.05;10.30;;;22.40;90.60;;;;;;5106614;28;20020;-70
2021/08/12 08:44:59;;;;;;;21.58;10.88;;;22.40;90.50;;;;;;5090695;28;20156;-70
2021/08/12 08:47:26;;;;;;;18.83;10.30;;;22.40;90.70;;;;;;5108622;28;20081;-71
2021/08/12 08:49:55;;;;;;;18.65;9.60;;;22.40;90.90;;;;;;5110554;28;20062;-71
2021/08/12 08:52:22;;;;;;;16.75;8.85;;;22.50;91.10;;;;;;5111672;28;20020;-70
2021/08/12 08:54:49;;;;;;;17.75;8.70;;;22.50;90.90;;;;;;5111237;28;20035;-71
2021/08/12 08:57:15;;;;;;;12.00;7.93;;;22.50;90.90;;;;;;5111057;28;20045;-73
2021/08/12 08:59:41;;;;;;;13.38;7.85;;;22.50;91.10;;;;;;5111169;28;20032;-75
2021/08/12 09:02:08;;;;;;;17.88;7.20;;;22.50;91.20;;;;;;5113662;28;20023;-72
2021/08/12 09:04:35;;;;;;;17.00;5.90;;;22.50;90.80;;;;;;5115215;28;20390;-74
2021/08/12 09:07:07;;;;;;;14.20;5.80;;;22.40;90.20;;;;;;5114823;28;20024;-74
2021/08/12 09:09:37;;;;;;;14.20;5.38;;;22.40;90.20;;;;;;5096908;28;20032;-73
2021/08/12 09:12:04;;;;;;;11.48;4.40;;;22.40;90.10;;;;;;5094573;28;20432;-71
2021/08/12 09:14:36;;;;;;;11.88;5.03;;;22.50;90.10;;;;;;5094654;28;20027;-72
2021/08/12 09:17:24;;;;;;;8.95;4.40;;;22.50;89.90;;;;;;5094172;28;20016;-71
2021/08/12 09:20:09;;;;;;;15.00;5.05;;;22.50;89.60;;;;;;5094454;28;20071;-71
2021/08/12 09:22:57;;;;;;;11.95;4.60;;;22.50;90.00;;;;;;5094168;28;20024;-71
2021/08/12 09:25:37;;;;;;;14.00;4.50;;;22.50;89.40;;;;;;5094136;28;20492;-71
2021/08/12 09:28:11;;;;;;;12.15;4.03;;;22.60;89.10;;;;;;5093994;28;20395;-73
2021/08/12 09:30:37;;;;;;;11.33;4.43;;;22.60;88.90;;;;;;5094478;28;20032;-71
2021/08/12 09:33:03;;;;;;;6.88;3.42;;;22.60;88.10;;;;;;5113860;28;20278;-71
2021/08/12 09:35:29;;;;;;;9.02;3.65;;;22.50;87.20;;;;;;5114762;28;20395;-71
2021/08/12 09:38:08;;;;;;;8.88;3.00;;;22.60;86.20;;;;;;5114148;28;20081;-71
2021/08/12 09:40:33;;;;;;;5.53;3.38;;;22.60;86.50;;;;;;5114411;28;20386;-73
2021/08/12 09:43:01;;;;;;;9.02;3.42;;;22.60;86.80;;;;;;5114340;28;20099;-71
2021/08/12 09:45:29;;;;;;;8.27;3.70;;;22.60;86.80;;;;;;5114241;28;20023;-73
2021/08/12 09:47:56;;;;;;;8.07;3.53;;;22.70;86.90;;;;;;5114062;28;20028;-72
2021/08/12 09:50:26;;;;;;;7.50;3.15;;;22.70;87.00;;;;;;5114315;28;20037;-72
2021/08/12 09:52:52;;;;;;;6.25;3.22;;;22.70;87.00;;;;;;5095461;28;20028;-74
2021/08/12 09:55:22;;;;;;;8.13;3.78;;;22.80;87.00;;;;;;5114600;28;20514;-71
2021/08/12 09:57:53;;;;;;;27.05;3.45;;;22.80;87.20;;;;;;5114501;28;20031;-72
2021/08/12 10:00:25;;;;;;;8.80;3.38;;;22.90;87.30;;;;;;5114195;28;20051;-73
2021/08/12 10:02:52;;;;;;;5.90;3.63;;;22.90;87.10;;;;;;5114055;28;20475;-72
2021/08/12 10:05:17;;;;;;;5.78;3.63;;;23.00;87.10;;;;;;5114386;28;20076;-72
2021/08/12 10:07:48;;;;;;;7.38;4.10;;;23.00;87.20;;;;;;5109211;28;20012;-72
2021/08/12 10:10:19;;;;;;;10.75;4.35;;;23.00;87.20;;;;;;5093393;28;20032;-73
2021/08/12 10:12:49;;;;;;;7.15;3.90;;;23.00;87.30;;;;;;5093262;28;20066;-73
2021/08/12 10:15:20;;;;;;;7.55;4.65;;;23.00;87.10;;;;;;5093328;28;20027;-72
2021/08/12 10:17:48;;;;;;;8.98;5.25;;;23.00;86.80;;;;;;5093658;28;20020;-73
2021/08/12 10:20:20;;;;;;;10.52;5.63;;;23.00;86.90;;;;;;5093033;28;20082;-72
2021/08/12 10:22:48;;;;;;;8.27;5.15;;;23.00;86.40;;;;;;5093713;28;20020;-75
2021/08/12 10:25:15;;;;;;;7.78;5.00;;;23.00;87.00;;;;;;5093186;28;20027;-72
2021/08/12 10:27:43;;;;;;;8.35;4.93;;;23.10;86.60;;;;;;5093092;28;20077;-73
2021/08/12 10:30:09;;;;;;;10.75;4.38;;;23.10;86.50;;;;;;5095654;28;20028;-72
2021/08/12 10:32:38;;;;;;;8.07;4.60;;;23.10;86.30;;;;;;5113483;28;20031;-72
2021/08/12 10:35:04;;;;;;;8.10;4.53;;;23.10;86.20;;;;;;5113340;28;20024;-72
2021/08/12 10:37:30;;;;;;;10.93;4.60;;;23.10;86.30;;;;;;5113367;28;20502;-72
2021/08/12 10:39:57;;;;;;;7.70;4.57;;;23.10;86.30;;;;;;5107175;28;20036;-72
2021/08/12 10:42:23;;;;;;;11.70;4.80;;;23.10;86.30;;;;;;5094112;28;20048;-73
2021/08/12 10:44:50;;;;;;;8.73;4.35;;;23.20;86.30;;;;;;5113284;28;20050;-71
2021/08/12 10:47:41;;;;;;;7.93;4.32;;;23.20;86.30;;;;;;5111762;28;20023;-73
2021/08/12 10:50:38;;;;;;;6.68;4.20;;;23.20;86.50;;;;;;5113025;28;20045;-73
2021/08/12 10:53:04;;;;;;;5.32;3.85;;;23.20;86.50;;;;;;5093846;28;20118;-73
2021/08/12 10:55:31;;;;;;;8.80;3.72;;;23.30;86.60;;;;;;5112907;28;20145;-74
2021/08/12 10:58:18;;;;;;;6.30;4.03;;;23.30;86.50;;;;;;5112767;28;20176;-72
2021/08/12 11:00:47;;;;;;;9.73;3.47;;;23.30;86.40;;;;;;5112764;28;20404;-72
2021/08/12 11:03:13;;;;;;;9.05;4.00;;;23.30;86.40;;;;;;5094441;28;20098;-72
2021/08/12 11:06:07;;;;;;;7.15;3.80;;;23.30;86.40;;;;;;5111311;28;20440;-72
2021/08/12 11:11:25;;;;;;;7.63;4.03;;;23.40;86.20;;;;;;5116085;28;20074;-72
2021/08/12 11:14:11;;;;;;;7.90;3.97;;;23.40;86.20;;;;;;5111808;28;20115;-71
2021/08/12 11:16:43;;;;;;;5.25;3.53;;;23.40;86.30;;;;;;5112643;28;20069;-72
2021/08/12 11:19:29;;;;;;;9.85;4.70;;;23.40;86.10;;;;;;5112232;28;20043;-71
2021/08/12 11:21:56;;;;;;;7.10;3.70;;;23.40;86.30;;;;;;5110340;28;20210;-72
2021/08/12 11:24:24;;;;;;;7.65;4.32;;;23.40;86.70;;;;;;5091622;28;20070;-72
2021/08/12 11:26:53;;;;;;;7.45;4.28;;;23.40;87.00;;;;;;5092451;28;20016;-71
2021/08/12 11:29:31;;;;;;;11.57;4.18;;;23.50;86.90;;;;;;5092457;28;20064;-71
2021/08/12 11:31:57;;;;;;;7.22;3.80;;;23.50;87.00;;;;;;5091884;28;20013;-71
2021/08/12 11:34:46;;;;;;;15.07;5.03;;;23.50;87.00;;;;;;5091934;28;20028;-72
2021/08/12 11:37:29;;;;;;;7.30;4.07;;;23.60;86.80;;;;;;5091441;28;20023;-72
2021/08/12 11:40:01;;;;;;;7.95;3.85;;;23.60;86.80;;;;;;5073138;28;20473;-72
2021/08/12 11:42:38;;;;;;;12.75;4.53;;;23.60;86.60;;;;;;5091715;28;20510;-72
2021/08/12 11:45:10;;;;;;;8.38;4.38;;;23.70;87.20;;;;;;5091747;28;20016;-73
2021/08/12 11:47:37;;;;;;;16.33;5.40;;;23.80;86.40;;;;;;5091494;28;20030;-72
2021/08/12 11:50:05;;;;;;;9.50;5.18;;;23.80;86.70;;;;;;5091553;28;20095;-72
2021/08/12 11:52:36;;;;;;;12.02;4.93;;;23.80;86.50;;;;;;5091722;28;20027;-73
2021/08/12 11:55:17;;;;;;;10.68;4.88;;;23.90;86.60;;;;;;5102927;28;20558;-72
2021/08/12 11:57:49;;;;;;;9.60;4.90;;;23.90;86.60;;;;;;5111583;28;20071;-73
2021/08/12 12:00:23;;;;;;;8.65;4.47;;;24.00;86.90;;;;;;5109946;28;20114;-73
2021/08/12 12:02:58;;;;;;;9.88;4.68;;;24.00;87.00;;;;;;5111148;28;20030;-73
2021/08/12 12:05:24;;;;;;;;;;;24.00;87.20;;;;;;5111683;28;20028;-74
2021/08/12 12:07:50;;;;;;;;;;;24.10;87.30;;;;;;5112707;28;19911;-74
2021/08/12 12:10:24;;;;;;;10.48;4.63;;;24.10;87.30;;;;;;5112243;28;20267;-73
2021/08/12 12:12:50;;;;;;;8.13;4.57;;;24.10;87.30;;;;;;5093827;28;20023;-74
2021/08/12 12:15:36;;;;;;;8.85;4.05;;;24.10;87.30;;;;;;5111641;28;20555;-74
2021/08/12 12:18:03;;;;;;;8.25;3.88;;;24.10;87.50;;;;;;5111434;28;20039;-74
2021/08/12 12:20:29;;;;;;;9.65;4.25;;;24.10;87.50;;;;;;5111464;28;20403;-74
2021/08/12 12:22:59;;;;;;;8.80;3.85;;;24.00;87.60;;;;;;5111430;28;20103;-75
2021/08/12 12:25:26;;;;;;;8.88;3.67;;;24.00;87.80;;;;;;5111661;28;20085;-76
2021/08/12 12:27:54;;;;;;;8.02;3.83;;;23.90;88.00;;;;;;5111349;28;20023;-74
2021/08/12 12:30:19;;;;;;;9.13;4.22;;;23.90;88.20;;;;;;5111988;28;20471;-75
2021/08/12 12:33:15;;;;;;;6.40;4.13;;;23.90;88.30;;;;;;5111515;28;20038;-74
2021/08/12 12:35:49;;;;;;;9.85;4.10;;;23.90;88.30;;;;;;5116117;28;20035;-73
2021/08/12 12:38:19;;;;;;;6.60;3.40;;;23.90;88.40;;;;;;5115944;28;20015;-73
2021/08/12 12:40:45;;;;;;;10.02;3.92;;;23.90;89.10;;;;;;5114578;28;20085;-73
2021/08/12 12:43:11;;;;;;;6.80;4.60;;;23.90;89.60;;;;;;5114541;28;20743;-73
2021/08/12 12:46:03;;;;;;;6.10;3.63;;;23.90;89.10;;;;;;5114397;28;20523;-73
2021/08/12 12:48:41;;;;;;;8.38;4.10;;;23.90;90.00;;;;;;5109909;28;20067;-73
2021/08/12 12:51:08;;;;;;;10.30;3.85;;;23.90;89.40;;;;;;5114551;28;20387;-73
2021/08/12 12:53:43;;;;;;;7.18;3.40;;;24.00;89.50;;;;;;5114322;28;20504;-73
2021/08/12 12:56:34;;;;;;;5.82;3.97;;;24.00;89.60;;;;;;5114234;28;20030;-73